Time;durP1;ratioP1;P1;durP2;ratioP2;P2;SDS_P1;SDS_P2;PMS_P1;PMS_P2;Temp;Humidity;BMP_temperature;BMP_pressure;BME280_temperature;BME280_humidity;BME280_pressure;Samples;Min_cycle;Max_cycle;Signal;HPM_P1;HPM_P2
2022/09/09 00:01:53;;;;;;;;;;;16.10;58.60;;;12.02;100.00;95330.22;5004117;28;19945;-52
2022/09/09 00:04:34;;;;;;;;;;;16.20;58.70;;;12.07;100.00;95329.41;5011494;28;19915;-49
2022/09/09 00:07:45;;;;;;;;;;;16.20;58.80;;;12.10;100.00;95315.50;5007371;28;19935;-49
2022/09/09 00:10:17;;;;;;;;;;;16.30;58.80;;;12.18;100.00;95325.56;4990255;28;19920;-51
2022/09/09 00:13:19;;;;;;;;;;;16.30;58.90;;;12.22;99.93;95315.94;5001613;28;19921;-48
2022/09/09 00:16:25;;;;;;;;;;;16.30;58.90;;;12.27;99.37;95317.75;5007292;28;20407;-49
2022/09/09 00:19:21;;;;;;;;;;;16.40;59.00;;;12.30;99.25;95324.41;4995058;28;19995;-47
2022/09/09 00:22:14;;;;;;;;;;;16.50;59.00;;;12.34;99.35;95322.75;4999178;28;19960;-50
2022/09/09 00:24:46;;;;;;;;;;;16.50;59.00;;;12.36;99.21;95320.59;5001131;28;19956;-49
2022/09/09 00:27:47;;;;;;;;;;;16.50;59.10;;;12.39;99.30;95320.84;4976791;28;20353;-51
2022/09/09 00:30:33;;;;;;;;;;;16.50;59.00;;;12.43;99.12;95324.53;4995350;28;19999;-54
2022/09/09 00:33:14;;;;;;;;;;;16.60;59.10;;;12.47;99.51;95322.91;4988364;28;20011;-54
2022/09/09 00:35:56;;;;;;;;;;;16.60;59.10;;;12.54;100.00;95321.78;4979960;28;19920;-51
2022/09/09 00:38:45;;;;;;;;;;;16.70;59.20;;;12.62;99.80;95319.25;4994319;28;19913;-50
2022/09/09 00:41:55;;;;;;;;;;;16.80;59.30;;;12.69;99.29;95325.09;5010333;28;19912;-52
2022/09/09 00:44:35;;;;;;;;;;;16.80;59.30;;;12.75;99.45;95320.47;4981488;28;20265;-49
2022/09/09 00:47:35;;;;;;;;;;;16.90;59.40;;;12.80;99.17;95316.94;5001808;28;19959;-51
2022/09/09 00:50:24;;;;;;;;;;;16.90;59.30;;;12.84;99.10;95313.41;5010834;28;20062;-50
2022/09/09 00:53:18;;;;;;;;;;;17.00;59.40;;;12.90;99.03;95304.25;5005353;28;20399;-51
2022/09/09 00:56:19;;;;;;;;;;;17.00;59.40;;;12.95;98.63;95306.88;4973212;28;19967;-55
2022/09/09 00:59:10;;;;;;;;;;;17.10;59.40;;;13.00;99.12;95314.03;4998158;28;19909;-55
2022/09/09 01:01:39;;;;;;;;;;;17.10;59.40;;;13.03;99.12;95313.44;4996156;28;20453;-54
2022/09/09 01:04:28;;;;;;;;;;;17.20;59.50;;;13.08;98.85;95308.06;5008654;28;20011;-51
2022/09/09 01:07:13;;;;;;;;;;;17.20;59.50;;;13.09;98.28;95319.53;4998890;28;19944;-46
2022/09/09 01:10:05;;;;;;;;;;;17.20;59.50;;;13.07;98.26;95324.41;4985126;28;19962;-49
2022/09/09 01:12:46;;;;;;;;;;;17.20;59.50;;;13.08;98.37;95318.75;4982566;28;19912;-49
2022/09/09 01:15:26;;;;;;;;;;;17.30;59.50;;;13.08;98.17;95317.97;4989309;28;20256;-47
2022/09/09 01:18:23;;;;;;;;;;;17.30;59.40;;;13.06;97.82;95320.09;4994330;28;20008;-49
2022/09/09 01:21:10;;;;;;;;;;;17.30;59.40;;;13.00;97.36;95330.06;5010368;28;19936;-47
2022/09/09 01:23:53;;;;;;;;;;;17.30;59.40;;;12.94;98.03;95324.00;5011027;28;19920;-48
2022/09/09 01:26:36;;;;;;;;;;;17.20;59.40;;;12.90;98.46;95336.31;5000399;28;19909;-46
2022/09/09 01:29:31;;;;;;;;;;;17.20;59.40;;;12.86;98.42;95324.63;5005471;28;20320;-49
2022/09/09 01:32:50;;;;;;;;;;;17.20;59.40;;;12.82;98.17;95331.63;4991561;28;19909;-49
2022/09/09 01:35:44;;;;;;;;;;;17.10;59.40;;;12.73;97.98;95333.31;4990707;28;20360;-49
2022/09/09 01:38:16;;;;;;;;;;;17.00;59.50;;;12.69;97.74;95324.25;4998910;28;19913;-50
2022/09/09 01:40:49;;;;;;;;;;;17.00;59.50;;;12.62;97.70;95326.47;4992764;28;19916;-50
2022/09/09 01:43:23;;;;;;;;;;;16.90;59.60;;;12.56;99.11;95327.63;4991294;28;20382;-49
2022/09/09 01:45:54;;;;;;;;;;;16.90;59.70;;;12.58;100.00;95325.47;5005134;28;19918;-50
2022/09/09 01:48:23;;;;;;;;;;;16.80;59.70;;;12.58;100.00;95326.25;5002785;28;20463;-49
2022/09/09 01:50:52;;;;;;;;;;;16.80;59.80;;;12.55;99.20;95321.47;4998811;28;19913;-49
2022/09/09 01:53:21;;;;;;;;;;;16.80;59.80;;;12.48;100.00;95326.38;4989191;28;19932;-49
2022/09/09 01:56:17;;;;;;;;;;;16.70;59.90;;;12.42;100.00;95330.97;4985037;28;19956;-48
2022/09/09 01:59:04;;;;;;;;;;;16.70;59.90;;;12.43;99.84;95334.41;5002760;28;19917;-50
2022/09/09 02:01:50;;;;;;;;;;;16.60;60.00;;;12.38;99.21;95340.63;4989714;28;20348;-48
2022/09/09 02:05:15;;;;;;;;;;;16.60;60.00;;;12.30;99.03;95345.78;5005542;28;20003;-47
2022/09/09 02:07:51;;;;;;;;;;;16.50;60.00;;;12.25;99.92;95339.41;4934597;28;19975;-49
2022/09/09 02:10:36;;;;;;;;;;;16.50;60.20;;;12.24;100.00;95339.66;5008556;28;19909;-49
2022/09/09 02:13:10;;;;;;;;;;;16.50;60.30;;;12.23;99.85;95351.44;4996782;28;19920;-52
2022/09/09 02:15:47;;;;;;;;;;;16.50;60.40;;;12.18;99.75;95352.25;4986196;28;19967;-49
2022/09/09 02:18:21;;;;;;;;;;;16.40;60.40;;;12.17;100.00;95355.22;4996320;28;19945;-49
2022/09/09 02:20:48;;;;;;;;;;;16.40;60.50;;;12.19;100.00;95353.06;5005701;28;19909;-49
2022/09/09 02:23:16;;;;;;;;;;;16.40;60.60;;;12.18;100.00;95352.25;4989138;28;19913;-47
2022/09/09 02:25:55;;;;;;;;;;;16.50;60.80;;;12.23;100.00;95351.44;5006930;28;19921;-51
2022/09/09 02:28:23;;;;;;;;;;;16.50;60.90;;;12.21;100.00;95357.03;5006120;28;20030;-49
2022/09/09 02:31:00;;;;;;;;;;;16.50;60.80;;;12.22;100.00;95355.97;4973729;28;19920;-50
2022/09/09 02:33:35;;;;;;;;;;;16.50;60.80;;;12.19;100.00;95356.53;4986643;28;19944;-48
2022/09/09 02:36:10;;;;;;;;;;;16.40;60.90;;;12.22;100.00;95355.16;5005428;28;19917;-54
2022/09/09 02:38:50;;;;;;;;;;;16.40;61.00;;;12.25;100.00;95357.28;5005909;28;20389;-49
2022/09/09 02:41:21;;;;;;;;;;;16.40;61.10;;;12.23;100.00;95352.22;4996973;28;19933;-50
2022/09/09 02:43:47;;;;;;;;;;;16.40;61.30;;;12.25;100.00;95355.44;4992303;28;20311;-50
2022/09/09 02:46:28;;;;;;;;;;;16.50;61.30;;;12.29;100.00;95363.66;4975876;28;19916;-52
2022/09/09 02:49:11;;;;;;;;;;;16.50;61.30;;;12.31;100.00;95358.81;4989879;28;20047;-48
2022/09/09 02:52:01;;;;;;;;;;;16.60;61.50;;;12.38;100.00;95355.81;5002337;28;19974;-48
2022/09/09 02:54:36;;;;;;;;;;;16.60;61.50;;;12.47;99.41;95354.97;4993137;28;19916;-48
2022/09/09 02:57:17;;;;;;;;;;;16.70;61.60;;;12.63;97.64;95362.81;4993872;28;19924;-49
2022/09/09 02:59:44;;;;;;;;;;;16.80;61.70;;;12.77;95.91;95368.28;4976623;28;20352;-50
2022/09/09 03:02:16;;;;;;;;;;;16.90;61.70;;;12.94;93.42;95371.31;5008691;28;19999;-51
2022/09/09 03:04:50;;;;;;;;;;;17.10;61.80;;;13.14;92.24;95379.09;4992042;28;19916;-51
2022/09/09 03:07:18;;;;;;;;;;;17.10;61.80;;;13.30;90.87;95376.28;4998186;28;19955;-49
2022/09/09 03:09:47;;;;;;;;;;;17.30;61.80;;;13.40;89.55;95374.28;5004296;28;20002;-49
2022/09/09 03:12:13;;;;;;;;;;;17.40;61.60;;;13.51;89.60;95382.97;4972715;28;19917;-49
2022/09/09 03:14:45;;;;;;;;;;;17.50;61.50;;;13.59;88.97;95381.53;5009245;28;19921;-48
2022/09/09 03:17:11;;;;;;;;;;;17.60;61.30;;;13.65;88.33;95386.53;5009617;28;19913;-49
2022/09/09 03:19:37;;;;;;;;;;;17.70;61.20;;;13.70;88.05;95383.00;4997948;28;19909;-49
2022/09/09 03:22:04;;;;;;;;;;;17.70;60.90;;;13.73;88.75;95378.94;5010424;28;19909;-48
2022/09/09 03:24:33;;;;;;;;;;;17.80;60.80;;;13.76;89.18;95381.06;5005531;28;19921;-49
2022/09/09 03:27:04;;;;;;;;;;;17.80;60.60;;;13.74;89.71;95375.97;4980638;28;20288;-49
2022/09/09 03:29:34;;;;;;;;;;;17.90;60.60;;;13.74;90.15;95378.66;5004448;28;19910;-49
2022/09/09 03:32:02;;;;;;;;;;;17.90;60.40;;;13.71;90.50;95370.41;5004765;28;20402;-49
2022/09/09 03:34:34;;;;;;;;;;;17.90;60.30;;;13.70;90.22;95377.63;4999329;28;19915;-51
2022/09/09 03:37:04;;;;;;;;;;;17.80;60.20;;;13.68;90.44;95384.38;5005873;28;20002;-54
2022/09/09 03:39:34;;;;;;;;;;;17.90;60.20;;;13.65;90.44;95383.84;5003244;28;19913;-52
2022/09/09 03:42:06;;;;;;;;;;;17.90;60.20;;;13.65;90.68;95385.72;5008153;28;20004;-50
2022/09/09 03:44:32;;;;;;;;;;;17.90;60.20;;;13.60;90.97;95383.94;5005025;28;19920;-49
2022/09/09 03:47:01;;;;;;;;;;;17.90;60.20;;;13.58;91.11;95385.28;4990098;28;19910;-53
2022/09/09 03:49:29;;;;;;;;;;;17.90;60.20;;;13.57;91.53;95379.16;4988785;28;19924;-53
2022/09/09 03:51:57;;;;;;;;;;;17.80;60.20;;;13.59;92.22;95379.63;4985792;28;19945;-51
2022/09/09 03:54:25;;;;;;;;;;;17.80;60.20;;;13.57;92.12;95387.19;5008602;28;19917;-52
2022/09/09 03:56:56;;;;;;;;;;;17.80;60.20;;;13.55;92.27;95389.34;4994965;28;19913;-49
2022/09/09 03:59:22;;;;;;;;;;;17.80;60.20;;;13.55;91.93;95392.00;4995372;28;20368;-49
2022/09/09 04:01:48;;;;;;;;;;;17.80;60.20;;;13.52;92.14;95391.78;5011808;28;19912;-43
2022/09/09 04:04:14;;;;;;;;;;;17.80;60.30;;;13.50;92.64;95391.28;4964603;28;19909;-45
2022/09/09 04:06:40;;;;;;;;;;;17.80;60.30;;;13.49;92.80;95390.50;5004978;28;19909;-52
2022/09/09 04:09:05;;;;;;;;;;;17.80;60.30;;;13.49;92.86;95392.38;5005756;28;20003;-52
2022/09/09 04:11:31;;;;;;;;;;;17.80;60.40;;;13.50;92.57;95392.06;5005938;28;19944;-47
2022/09/09 04:13:59;;;;;;;;;;;17.80;60.40;;;13.46;93.13;95382.25;5006744;28;19917;-44
2022/09/09 04:16:28;;;;;;;;;;;17.70;60.30;;;13.48;93.36;95382.75;5010653;28;20338;-47
2022/09/09 04:18:54;;;;;;;;;;;17.70;60.40;;;13.47;94.01;95386.50;4982478;28;20402;-48
2022/09/09 04:21:23;;;;;;;;;;;17.70;60.50;;;13.43;94.54;95378.25;5004953;28;19909;-48
2022/09/09 04:23:48;;;;;;;;;;;17.70;60.60;;;13.41;94.27;95381.22;5009376;28;20281;-50
2022/09/09 04:26:17;;;;;;;;;;;17.70;60.60;;;13.39;94.89;95386.06;5004446;28;19959;-49
2022/09/09 04:28:46;;;;;;;;;;;17.60;60.70;;;13.38;94.74;95383.66;5010553;28;20334;-47
2022/09/09 04:31:21;;;;;;;;;;;17.60;60.90;;;13.36;94.96;95375.94;4995114;28;19932;-44
2022/09/09 04:33:50;;;;;;;;;;;17.50;60.80;;;13.34;95.36;95383.44;5008800;28;19909;-49
2022/09/09 04:36:21;;;;;;;;;;;17.50;61.00;;;13.34;95.67;95385.31;5000595;28;19960;-50
2022/09/09 04:38:48;;;;;;;;;;;17.50;61.10;;;13.32;96.03;95387.50;5006894;28;19916;-51
2022/09/09 04:41:15;;;;;;;;;;;17.40;61.10;;;13.32;95.67;95382.16;4983100;28;20008;-54
2022/09/09 04:43:44;;;;;;;;;;;17.40;61.30;;;13.30;95.80;95389.66;5006010;28;19909;-53
2022/09/09 04:46:12;;;;;;;;;;;17.40;61.40;;;13.29;96.19;95383.53;4988705;28;19909;-55
2022/09/09 04:48:41;;;;;;;;;;;17.40;61.40;;;13.29;96.57;95382.72;5006250;28;20028;-55
2022/09/09 04:51:13;;;;;;;;;;;17.40;61.50;;;13.25;97.63;95390.50;5004231;28;19909;-54
2022/09/09 04:53:40;;;;;;;;;;;17.40;61.50;;;13.25;97.10;95392.38;4994242;28;20364;-55
2022/09/09 04:56:17;;;;;;;;;;;17.40;61.60;;;13.23;97.81;95386.50;4991697;28;20035;-55
2022/09/09 04:58:43;;;;;;;;;;;17.30;61.60;;;13.19;98.99;95381.72;5001406;28;20004;-55
2022/09/09 05:01:38;;;;;;;;;;;17.30;61.60;;;13.19;99.00;95376.38;4999623;28;19916;-55
2022/09/09 05:04:10;;;;;;;;;;;17.30;61.80;;;13.16;98.96;95376.97;4999731;28;19992;-54
2022/09/09 05:06:45;;;;;;;;;;;17.20;61.80;;;13.14;99.31;95387.13;5005286;28;19917;-54
2022/09/09 05:09:11;;;;;;;;;;;17.20;62.00;;;13.14;99.19;95383.66;4996572;28;20003;-55
2022/09/09 05:11:43;;;;;;;;;;;17.20;62.10;;;13.12;99.50;95378.59;5006944;28;20355;-55
2022/09/09 05:14:15;;;;;;;;;;;17.20;62.10;;;13.11;99.71;95373.53;5007363;28;20963;-55
2022/09/09 05:16:44;;;;;;;;;;;17.20;62.20;;;13.11;100.00;95381.56;4976806;28;19916;-55
2022/09/09 05:19:10;;;;;;;;;;;17.20;62.30;;;13.12;99.72;95391.97;4997235;28;20417;-55
2022/09/09 05:21:36;;;;;;;;;;;17.20;62.40;;;13.11;100.00;95390.38;4988198;28;19917;-55
2022/09/09 05:26:32;;;;;;;;;;;17.20;62.50;;;13.12;100.00;95391.16;5005567;28;19929;-49
2022/09/09 05:29:00;;;;;;;;;;;17.20;62.60;;;13.13;100.00;95384.72;4995929;28;19971;-51
2022/09/09 05:31:27;;;;;;;;;;;17.20;62.60;;;13.14;100.00;95391.69;5010565;28;20382;-49
2022/09/09 05:33:54;;;;;;;;;;;17.20;62.70;;;13.12;100.00;95383.94;5009830;28;19916;-54
2022/09/09 05:36:22;;;;;;;;;;;17.20;62.80;;;13.14;100.00;95391.69;4973795;28;19913;-52
2022/09/09 05:38:53;;;;;;;;;;;17.20;62.80;;;13.14;100.00;95400.50;4973721;28;20051;-47
2022/09/09 05:41:19;;;;;;;;;;;17.20;62.90;;;13.14;100.00;95403.19;4990358;28;19919;-48
2022/09/09 05:43:49;;;;;;;;;;;17.20;62.90;;;13.17;100.00;95399.16;4990622;28;19941;-50
2022/09/09 05:46:22;;;;;;;;;;;17.20;63.70;;;13.19;100.00;95402.31;4969482;28;19913;-48
2022/09/09 05:48:50;;;;;;;;;;;17.30;63.10;;;13.21;100.00;95402.84;4987742;28;19956;-48
2022/09/09 05:51:24;;;;;;;;;;;17.30;63.10;;;13.23;100.00;95407.91;4977921;28;19916;-50
2022/09/09 05:53:54;;;;;;;;;;;17.30;63.10;;;13.24;100.00;95406.81;4969223;28;19914;-48
2022/09/09 05:56:26;;;;;;;;;;;17.30;63.10;;;13.26;100.00;95408.16;4975038;28;19922;-53
2022/09/09 05:58:54;;;;;;;;;;;17.40;63.20;;;13.29;100.00;95412.16;4989674;28;20734;-47
2022/09/09 06:01:24;;;;;;;;;;;17.40;63.20;;;13.31;100.00;95409.97;4985346;28;19917;-48
2022/09/09 06:03:53;;;;;;;;;;;17.40;63.20;;;13.34;100.00;95412.06;4961770;28;19910;-49
2022/09/09 06:06:23;;;;;;;;;;;17.50;63.20;;;13.38;100.00;95410.41;4982938;28;19917;-50
2022/09/09 06:08:58;;;;;;;;;;;17.50;63.20;;;13.43;100.00;95410.34;4964257;28;19995;-47
2022/09/09 06:11:33;;;;;;;;;;;17.60;63.20;;;13.48;100.00;95418.34;4979409;28;19952;-47
2022/09/09 06:14:02;;;;;;;;;;;17.70;63.20;;;13.54;100.00;95414.50;4991502;28;19921;-48
2022/09/09 06:16:32;;;;;;;;;;;17.70;63.10;;;13.59;100.00;95424.34;4972661;28;20295;-48
2022/09/09 06:19:05;;;;;;;;;;;17.80;63.20;;;13.66;100.00;95414.06;4973786;28;19909;-49
2022/09/09 06:21:37;;;;;;;;;;;17.80;63.20;;;13.72;100.00;95409.47;4972435;28;20004;-48
2022/09/09 06:24:10;;;;;;;;;;;17.90;63.20;;;13.74;100.00;95397.38;4983744;28;19918;-49
2022/09/09 06:26:40;;;;;;;;;;;18.00;63.20;;;13.80;100.00;95398.91;4961493;28;19993;-49
2022/09/09 06:29:10;;;;;;;;;;;18.10;63.20;;;13.91;100.00;95398.75;4987897;28;20486;-50
2022/09/09 06:31:39;;;;;;;;;;;18.20;63.10;;;14.01;100.00;95404.78;4963563;28;19963;-52
2022/09/09 06:34:08;;;;;;;;;;;18.40;63.10;;;14.11;100.00;95409.97;4985433;28;20776;-47
2022/09/09 06:36:38;;;;;;;;;;;18.40;63.00;;;14.20;100.00;95407.44;4964014;28;19917;-50
2022/09/09 06:39:10;;;;;;;;;;;18.50;63.00;;;14.24;100.00;95405.75;4969115;28;19952;-48
2022/09/09 06:41:39;;;;;;;;;;;18.60;63.00;;;14.27;100.00;95404.38;4978319;28;19924;-47
2022/09/09 06:44:05;;;;;;;;;;;18.60;62.90;;;14.24;99.02;95402.28;4973182;28;20051;-49
2022/09/09 06:46:37;;;;;;;;;;;18.60;62.80;;;14.30;99.35;95404.59;4988575;28;20376;-48
2022/09/09 06:49:08;;;;;;;;;;;18.70;62.70;;;14.34;99.33;95405.59;4989125;28;20399;-48
2022/09/09 06:51:42;;;;;;;;;;;18.70;62.70;;;14.31;99.46;95394.66;4989035;28;19909;-48
2022/09/09 06:54:09;;;;;;;;;;;18.80;62.70;;;14.35;98.98;95399.16;4986008;28;20387;-50
2022/09/09 06:56:40;;;;;;;;;;;18.80;62.70;;;14.36;98.99;95402.63;4983337;28;20288;-47
2022/09/09 06:59:08;;;;;;;;;;;18.90;62.60;;;14.38;98.60;95400.44;4969563;28;19913;-50
2022/09/09 07:01:41;;;;;;;;;;;18.90;62.50;;;14.39;98.64;95404.72;4993717;28;19920;-50
2022/09/09 07:04:08;;;;;;;;;;;18.90;62.50;;;14.46;98.11;95410.50;4992134;28;19945;-52
2022/09/09 07:06:39;;;;;;;;;;;19.00;62.60;;;14.70;98.67;95412.31;4973892;28;19910;-47
2022/09/09 07:09:13;;;;;;;;;;;19.20;62.40;;;14.96;98.85;95412.66;4989489;28;20055;-48
2022/09/09 07:11:45;;;;;;;;;;;19.60;62.40;;;15.04;97.44;95410.06;4973837;28;19918;-49
2022/09/09 07:14:14;;;;;;;;;;;19.70;62.20;;;15.05;95.58;95408.19;4982237;28;19910;-48
2022/09/09 07:17:00;;;;;;;;;;;19.80;62.10;;;15.00;95.55;95406.38;4992694;28;19914;-50
2022/09/09 07:19:26;;;;;;;;;;;19.80;61.80;;;15.12;94.91;95413.16;4976654;28;20092;-54
2022/09/09 07:24:38;;;;;;;;;;;20.10;61.70;;;15.42;93.99;95409.88;4994360;28;19971;-48
2022/09/09 07:27:05;;;;;;;;;;;20.20;61.70;;;15.55;93.15;95402.13;4959122;28;19957;-48
2022/09/09 07:29:31;;;;;;;;;;;20.30;61.60;;;15.84;93.80;95410.66;4976819;28;19909;-48
2022/09/09 07:31:59;;;;;;;;;;;20.50;61.60;;;15.95;91.47;95411.22;4993954;28;19913;-49
2022/09/09 07:34:31;;;;;;;;;;;20.70;61.50;;;16.00;91.25;95408.41;4956134;28;19914;-50
2022/09/09 07:37:00;;;;;;;;;;;20.80;61.40;;;16.13;89.30;95421.00;4981088;28;20341;-49
2022/09/09 07:39:26;;;;;;;;;;;20.90;61.10;;;16.49;87.79;95422.88;4975843;28;19949;-51
2022/09/09 07:42:04;;;;;;;;;;;21.50;60.70;;;17.00;85.89;95418.16;4986722;28;19971;-52
2022/09/09 07:44:34;;;;;;;;;;;22.10;60.20;;;17.51;83.55;95414.88;4975629;28;19937;-52
2022/09/09 07:47:03;;;;;;;;;;;22.80;59.90;;;18.07;81.19;95420.56;4963514;28;19960;-53
2022/09/09 07:49:38;;;;;;;;;;;23.50;59.60;;;18.59;77.97;95428.66;4979242;28;19940;-53
2022/09/09 07:52:04;;;;;;;;;;;24.10;59.10;;;19.13;78.51;95431.75;4992681;28;20027;-51
2022/09/09 07:54:30;;;;;;;;;;;24.80;58.50;;;19.80;74.76;95432.91;4993862;28;19913;-53
2022/09/09 07:56:58;;;;;;;;;;;25.60;58.00;;;20.42;70.46;95425.97;4990908;28;19913;-52
2022/09/09 07:59:30;;;;;;;;;;;26.40;57.60;;;21.01;69.87;95425.75;4969793;28;19920;-52
2022/09/09 08:02:13;;;;;;;;;;;27.30;56.90;;;21.46;66.66;95427.66;4969688;28;19910;-53
2022/09/09 08:04:39;;;;;;;;;;;27.70;56.40;;;21.44;63.51;95435.34;4991511;28;19910;-52
2022/09/09 08:07:15;;;;;;;;;;;27.90;55.70;;;21.10;63.08;95433.00;4992790;28;19913;-55
2022/09/09 08:09:44;;;;;;;;;;;27.70;55.00;;;21.11;64.96;95435.38;4974933;28;19953;-56
2022/09/09 08:12:10;;;;;;;;;;;27.50;54.60;;;21.15;65.56;95433.59;4976717;28;20288;-56
2022/09/09 08:14:39;;;;;;;;;;;27.30;54.50;;;21.03;66.30;95438.97;4991324;28;19920;-56
2022/09/09 08:17:05;;;;;;;;;;;27.00;54.40;;;20.61;65.46;95432.84;4951667;28;19925;-55
2022/09/09 08:19:35;;;;;;;;;;;26.70;54.40;;;20.39;66.38;95431.25;4986949;28;20408;-56
2022/09/09 08:22:03;;;;;;;;;;;26.40;54.30;;;20.18;67.92;95436.63;4983793;28;19917;-52
2022/09/09 08:24:28;;;;;;;;;;;26.10;54.30;;;20.07;67.18;95442.44;4987224;28;20495;-51
2022/09/09 08:26:56;;;;;;;;;;;25.80;54.30;;;19.96;69.85;95445.84;4990627;28;19913;-56
2022/09/09 08:29:22;;;;;;;;;;;25.80;54.20;;;19.95;66.49;95438.88;4992134;28;20444;-54
2022/09/09 08:32:16;;;;;;;;;;;25.90;54.00;;;20.46;65.71;95437.69;4972349;28;19949;-51
2022/09/09 08:34:49;;;;;;;;;;;26.50;53.60;;;21.02;64.59;95438.16;4985175;28;20376;-52
2022/09/09 08:37:15;;;;;;;;;;;27.10;53.20;;;21.49;62.16;95439.75;4986913;28;20257;-51
2022/09/09 08:39:40;;;;;;;;;;;27.90;52.90;;;21.96;60.24;95442.00;4985036;28;19916;-53
2022/09/09 08:42:33;;;;;;;;;;;28.30;52.50;;;21.98;61.99;95439.75;4969882;28;19967;-51
2022/09/09 08:45:31;;;;;;;;;;;28.40;52.20;;;21.82;59.05;95442.34;4974930;28;19940;-54
2022/09/09 08:48:34;;;;;;;;;;;28.10;51.90;;;21.58;60.79;95440.44;4964035;28;19918;-51
2022/09/09 08:51:07;;;;;;;;;;;27.80;51.80;;;21.13;63.32;95451.28;4975667;28;19921;-51
2022/09/09 08:53:44;;;;;;;;;;;27.40;51.60;;;20.89;63.78;95444.66;4979390;28;19910;-52
2022/09/09 08:56:18;;;;;;;;;;;27.00;51.50;;;20.55;64.28;95448.47;4972178;28;19917;-51
2022/09/09 08:58:50;;;;;;;;;;;26.70;51.60;;;20.49;65.53;95444.34;4985320;28;19993;-54
2022/09/09 09:01:43;;;;;;;;;;;26.50;51.80;;;20.31;64.82;95449.91;4982980;28;19995;-52
2022/09/09 09:04:30;;;;;;;;;;;26.30;51.70;;;20.23;66.05;95447.28;4983353;28;19953;-53
2022/09/09 09:07:27;;;;;;;;;;;26.20;51.70;;;19.99;64.28;95448.69;4988365;28;20391;-49
2022/09/09 09:10:33;;;;;;;;;;;26.10;51.60;;;20.39;66.41;95450.19;4989931;28;20204;-49
2022/09/09 09:13:01;;;;;;;;;;;26.20;51.50;;;20.89;63.10;95446.59;4991176;28;19917;-52
2022/09/09 09:15:41;;;;;;;;;;;26.90;51.50;;;21.03;63.23;95445.19;4973567;28;19939;-53
2022/09/09 09:18:12;;;;;;;;;;;27.00;51.30;;;20.89;60.32;95443.88;4986712;28;20303;-49
2022/09/09 09:21:13;;;;;;;;;;;26.80;51.20;;;20.49;61.88;95442.44;4971714;28;19910;-51
2022/09/09 09:24:00;;;;;;;;;;;26.70;50.90;;;20.44;60.78;95433.75;4963556;28;19909;-50
2022/09/09 09:26:35;;;;;;;;;;;26.60;50.80;;;20.37;60.74;95447.00;4970998;28;19918;-54
2022/09/09 09:29:21;;;;;;;;;;;26.60;50.60;;;20.37;61.88;95430.78;4983525;28;20375;-52
2022/09/09 09:32:03;;;;;;;;;;;26.90;50.30;;;20.39;62.68;95429.31;4963698;28;19913;-52
2022/09/09 09:34:34;;;;;;;;;;;26.80;50.10;;;20.60;62.63;95442.88;4985689;28;19920;-53
2022/09/09 09:37:29;;;;;;;;;;;26.70;50.10;;;20.60;62.05;95448.28;4983167;28;19917;-55
2022/09/09 09:40:13;;;;;;;;;;;26.50;50.20;;;20.54;59.76;95439.56;4970323;28;19913;-51
2022/09/09 09:42:57;;;;;;;;;;;26.30;50.20;;;20.11;59.71;95440.66;4955378;28;19964;-50
2022/09/09 09:45:44;;;;;;;;;;;26.10;50.00;;;20.17;61.45;95443.97;4973109;28;19914;-51
2022/09/09 09:48:15;;;;;;;;;;;25.90;50.40;;;20.22;61.13;95443.00;4981939;28;20004;-53
2022/09/09 09:51:00;;;;;;;;;;;26.20;49.30;;;20.45;58.24;95433.41;4990593;28;20336;-51
2022/09/09 09:53:36;;;;;;;;;;;26.50;48.90;;;21.05;58.66;95447.53;4991761;28;19952;-49
2022/09/09 09:56:25;;;;;;;;;;;27.00;48.90;;;21.65;56.44;95439.84;4970693;28;19914;-50
2022/09/09 09:58:54;;;;;;;;;;;27.70;48.60;;;21.74;55.17;95439.75;4988831;28;19945;-49
2022/09/09 10:01:40;;;;;;;;;;;28.00;48.30;;;21.80;58.58;95436.47;4990360;28;20360;-50
2022/09/09 10:04:21;;;;;;;;;;;28.10;48.00;;;21.73;56.63;95433.56;4972548;28;19920;-51
2022/09/09 10:06:47;;;;;;;;;;;28.10;47.90;;;21.72;54.84;95434.69;4988969;28;19917;-53
2022/09/09 10:09:45;;;;;;;;;;;28.10;47.60;;;21.70;54.10;95437.72;4973049;28;19990;-50
2022/09/09 10:13:25;;;;;;;;;;;28.30;47.50;;;21.98;54.26;95447.09;4972044;28;20356;-50
2022/09/09 10:16:40;;;;;;;;;;;28.60;47.00;;;21.60;54.67;95435.47;4921786;29;19953;-53
2022/09/09 10:19:16;;;;;;;;;;;28.60;46.60;;;21.34;54.78;95454.72;4922971;29;19953;-50
2022/09/09 10:22:03;;;;;;;;;;;28.50;46.40;;;20.80;56.92;95460.19;4955812;28;19910;-51
2022/09/09 10:24:48;;;;;;;;;;;28.30;45.90;;;20.82;56.23;95432.81;4993378;28;19956;-52
2022/09/09 10:27:49;;;;;;;;;;;28.20;45.80;;;20.63;59.76;95442.22;5009590;28;20322;-52
2022/09/09 10:30:48;;;;;;;;;;;28.20;45.80;;;20.36;58.62;95451.63;4991091;28;19910;-55
2022/09/09 10:34:10;;;;;;;;;;;28.00;45.60;;;20.45;58.62;95457.75;4996898;28;20016;-49
2022/09/09 10:36:48;;;;;;;;;;;27.90;45.70;;;20.30;59.12;95452.94;4938558;28;19917;-53
2022/09/09 10:39:45;;;;;;;;;;;27.70;45.90;;;20.32;58.05;95464.22;4992836;28;19909;-53
2022/09/09 10:42:16;;;;;;;;;;;27.40;46.10;;;20.08;58.41;95462.94;5009209;28;19944;-49
2022/09/09 10:45:10;;;;;;;;;;;27.20;46.10;;;20.08;58.86;95467.56;4973455;28;19957;-47
2022/09/09 10:48:13;;;;;;;;;;;27.00;46.10;;;20.17;58.01;95459.41;4999855;28;19932;-56
2022/09/09 10:51:05;;;;;;;;;;;26.90;46.40;;;20.34;59.41;95451.97;5006747;28;19916;-52
2022/09/09 10:54:22;;;;;;;;;;;27.00;46.30;;;20.56;57.14;95450.09;5003158;28;20271;-55
2022/09/09 10:57:25;;;;;;;;;;;27.20;46.40;;;20.75;57.68;95453.09;5008950;28;19913;-55
2022/09/09 10:59:58;;;;;;;;;;;27.40;46.40;;;20.96;56.51;95447.63;5003088;28;19955;-56
2022/09/09 11:02:36;;;;;;;;;;;27.50;46.40;;;21.18;55.20;95453.78;4989373;28;20371;-56
2022/09/09 11:05:18;;;;;;;;;;;27.50;46.40;;;21.50;55.47;95449.47;5006516;28;19988;-54
2022/09/09 11:08:12;;;;;;;;;;;27.80;46.20;;;21.67;53.15;95449.25;5010529;28;19916;-54
2022/09/09 11:11:11;;;;;;;;;;;28.10;46.20;;;21.89;53.24;95439.06;4989186;28;20283;-56
2022/09/09 11:13:44;;;;;;;;;;;28.40;45.90;;;22.18;54.43;95449.69;5008957;28;20015;-56
2022/09/09 11:16:25;;;;;;;;;;;28.90;45.40;;;22.68;51.58;95439.47;5007790;28;19913;-49
2022/09/09 11:19:15;;;;;;;;;;;29.40;45.00;;;22.95;51.38;95440.66;4990739;28;20000;-52
2022/09/09 11:21:50;;;;;;;;;;;29.70;44.90;;;23.57;51.48;95435.63;4975548;28;20280;-53
2022/09/09 11:24:41;;;;;;;;;;;30.40;44.60;;;23.72;51.56;95425.91;5005394;23;20356;-45
2022/09/09 11:27:17;;;;;;;;;;;30.70;44.20;;;23.55;50.83;95430.53;4999764;28;19929;-50
2022/09/09 11:30:06;;;;;;;;;;;30.70;44.80;;;23.62;51.01;95424.47;5008111;28;19919;-50
2022/09/09 11:33:15;;;;;;;;;;;30.50;44.10;;;23.51;50.89;95420.72;4995339;28;19960;-47
2022/09/09 11:36:30;;;;;;;;;;;30.40;44.20;;;23.72;50.11;95418.56;4977731;28;19909;-52
2022/09/09 11:39:30;;;;;;;;;;;30.60;44.00;;;23.99;48.42;95411.38;4978123;28;19922;-49
2022/09/09 11:42:14;;;;;;;;;;;31.40;43.30;;;24.26;49.28;95408.88;4989796;28;20318;-51
2022/09/09 11:44:42;;;;;;;;;;;32.10;42.70;;;24.82;48.27;95404.94;4991929;28;19932;-52
2022/09/09 11:47:31;;;;;;;;;;;32.60;42.50;;;25.04;47.19;95400.66;4973164;28;20026;-52
2022/09/09 11:50:15;;;;;;;;;;;33.30;42.10;;;25.18;44.92;95398.25;4957898;28;20368;-53
2022/09/09 11:53:22;;;;;;;;;;;33.90;41.60;;;25.48;43.39;95400.28;4983751;28;19910;-51
2022/09/09 11:56:02;;;;;;;;;;;34.40;41.00;;;25.78;43.99;95387.53;4974112;28;19914;-46
2022/09/09 11:59:02;;;;;;;;;;;34.90;40.10;;;26.19;40.84;95389.69;4969852;28;19931;-48
2022/09/09 12:01:37;;;;;;;;;;;35.00;39.90;;;25.90;44.00;95402.94;4958424;28;19909;-51
2022/09/09 12:04:09;;;;;;;;;;;34.80;39.10;;;25.75;43.53;95384.75;4988527;28;20371;-51
2022/09/09 12:07:02;;;;;;;;;;;35.00;38.80;;;26.03;42.93;95385.19;4993736;28;19910;-50
2022/09/09 12:10:07;;;;;;;;;;;35.10;38.70;;;25.64;42.36;95389.28;4992379;28;19909;-51